Pagina principale
METAR-TAF:

METAR-TAF

Aeroporti :

North Kingstown, Rhode Island, Stati Uniti

latitudine: 41-36N, longitudine: 071-25W, altezza: 6 m

Osservazione

Il bollettino è stato emesso 17 ore e 15 minuti fa, alle 21:50 UTC
Vento 8 kt da ovest
Temperature 13°C
Umidità 54%
Pressione 1023 hPa
Visibilità: 24.1 km
Nuvoloso ad un'altezza di 18000 ft

METAR: KOQU 142150Z 27008KT 15SM BKN180 13/04 A3020 RMK LAST

Ora: 11:05 (15:05 UTC)


TAF: mancante

Osservazioni e previsioni meteorologiche di più di 4000 aeroporti (messaggi METAR e TAF).

Le stazioni disponibili sono rappresentate dai dischi gialli e rossi sulla carta.

Puntare il mouse per vedere il nome della stazione.

Clicca sopra per visualizzare le osservazioni e previsioni meteorologiche.

Per cambiare la mappa : fare clic sui pulsanti verdi con una croce nera per ingrandire, il pulsante verde con un trattino per diminuire, o sulla freccia verde per le mappe adiacenti.


METAR-TAF: